Time;durP1;ratioP1;P1;durP2;ratioP2;P2;SDS_P1;SDS_P2;PMS_P1;PMS_P2;Temp;Humidity;BMP_temperature;BMP_pressure;BME280_temperature;BME280_humidity;BME280_pressure;Samples;Min_cycle;Max_cycle;Signal;HPM_P1;HPM_P2
2022/05/31 00:01:50;;;;;;;8.15;4.10;;;7.50;99.90;;;;;;5029213;28;20033;-72
2022/05/31 00:04:16;;;;;;;9.07;4.13;;;7.60;99.90;;;;;;5008299;28;20107;-73
2022/05/31 00:06:42;;;;;;;6.65;4.30;;;7.50;99.90;;;;;;5029179;28;20523;-73
2022/05/31 00:09:08;;;;;;;7.28;4.30;;;7.40;99.90;;;;;;5030617;28;20478;-73
2022/05/31 00:11:36;;;;;;;8.93;4.50;;;7.40;99.90;;;;;;5028886;28;20040;-73
2022/05/31 00:14:03;;;;;;;7.70;4.30;;;7.40;99.90;;;;;;5027337;28;20034;-72
2022/05/31 00:16:29;;;;;;;7.15;4.07;;;7.40;99.90;;;;;;5029993;28;20030;-73
2022/05/31 00:18:54;;;;;;;12.07;4.32;;;7.40;99.90;;;;;;5029599;28;20040;-73
2022/05/31 00:21:22;;;;;;;7.65;4.20;;;7.40;99.90;;;;;;5028387;28;20043;-73
2022/05/31 00:23:48;;;;;;;6.25;4.05;;;7.40;99.90;;;;;;5030333;28;20048;-74
2022/05/31 00:26:13;;;;;;;8.30;4.72;;;7.30;99.90;;;;;;5026899;28;20455;-73
2022/05/31 00:28:39;;;;;;;9.65;4.38;;;7.30;99.90;;;;;;5027450;28;20021;-73
2022/05/31 00:31:07;;;;;;;9.15;4.32;;;7.30;99.90;;;;;;5029627;28;20051;-74
2022/05/31 00:33:33;;;;;;;9.38;4.10;;;7.20;99.90;;;;;;5027011;28;20037;-73
2022/05/31 00:35:59;;;;;;;8.10;4.43;;;7.10;99.90;;;;;;5027143;28;20120;-71
2022/05/31 00:38:24;;;;;;;9.77;4.30;;;7.00;99.90;;;;;;5028338;28;20057;-73
2022/05/31 00:40:50;;;;;;;8.75;4.25;;;7.00;99.90;;;;;;5027835;28;20509;-74
2022/05/31 00:43:25;;;;;;;7.93;4.15;;;6.90;99.90;;;;;;5029634;28;20029;-74
2022/05/31 00:46:00;;;;;;;9.65;4.50;;;6.90;99.90;;;;;;5028990;28;20079;-73
2022/05/31 00:48:42;;;;;;;8.75;4.38;;;7.00;99.90;;;;;;5025986;28;20041;-73
2022/05/31 00:51:14;;;;;;;7.65;4.60;;;7.00;99.90;;;;;;5026865;28;20045;-72
2022/05/31 00:54:03;;;;;;;8.75;4.40;;;7.00;99.90;;;;;;5027056;28;20056;-72
2022/05/31 00:56:31;;;;;;;15.30;4.63;;;6.90;99.90;;;;;;5028699;28;20045;-73
2022/05/31 00:59:04;;;;;;;7.30;4.30;;;6.80;99.90;;;;;;5027990;28;20057;-73
2022/05/31 01:01:34;;;;;;;7.38;4.38;;;6.70;99.90;;;;;;5028593;28;20091;-74
2022/05/31 01:04:00;;;;;;;7.65;4.25;;;6.80;99.90;;;;;;5025979;28;20065;-71
2022/05/31 01:06:26;;;;;;;7.60;4.15;;;6.90;99.90;;;;;;5029692;28;20056;-73
2022/05/31 01:08:56;;;;;;;8.95;4.18;;;7.00;99.90;;;;;;5028628;28;20030;-73
2022/05/31 01:11:26;;;;;;;7.38;4.35;;;6.90;99.90;;;;;;5027042;28;20486;-73
2022/05/31 01:13:53;;;;;;;8.82;4.25;;;6.90;99.90;;;;;;5028474;28;20037;-71
2022/05/31 01:16:18;;;;;;;6.43;4.10;;;6.90;99.90;;;;;;5027093;28;20068;-70
2022/05/31 01:18:44;;;;;;;9.50;4.30;;;6.90;99.90;;;;;;5028072;28;20457;-73
2022/05/31 01:21:10;;;;;;;6.80;4.20;;;7.00;99.90;;;;;;5026266;28;20128;-73
2022/05/31 01:23:47;;;;;;;8.20;3.95;;;7.00;99.90;;;;;;5024168;28;20026;-73
2022/05/31 01:26:45;;;;;;;8.63;3.83;;;7.00;99.90;;;;;;5026989;28;20525;-73
2022/05/31 01:29:38;;;;;;;7.53;4.35;;;6.90;99.90;;;;;;5013602;28;20079;-72
2022/05/31 01:32:12;;;;;;;7.55;4.20;;;6.90;99.90;;;;;;5006456;28;20442;-71
2022/05/31 01:35:04;;;;;;;8.18;4.20;;;6.80;99.90;;;;;;5020119;28;20612;-73
2022/05/31 01:37:43;;;;;;;8.18;4.38;;;6.50;99.90;;;;;;5027782;28;20044;-74
2022/05/31 01:40:17;;;;;;;7.32;4.13;;;6.40;99.90;;;;;;5009776;28;20118;-73
2022/05/31 01:42:46;;;;;;;8.80;4.93;;;6.40;99.90;;;;;;5024205;28;20029;-73
2022/05/31 01:45:31;;;;;;;7.90;4.13;;;6.40;99.90;;;;;;5008944;28;20041;-73
2022/05/31 01:48:00;;;;;;;8.93;4.50;;;6.40;99.90;;;;;;5028048;28;20040;-73
2022/05/31 01:50:26;;;;;;;8.10;4.18;;;6.30;99.90;;;;;;5026548;28;20091;-73
2022/05/31 01:52:52;;;;;;;9.88;4.65;;;6.30;99.90;;;;;;5028333;28;20465;-73
2022/05/31 01:55:19;;;;;;;9.35;4.70;;;6.30;99.90;;;;;;5025018;28;20033;-72
2022/05/31 01:57:53;;;;;;;9.52;4.80;;;6.30;99.90;;;;;;5026354;28;20037;-73
2022/05/31 02:00:19;;;;;;;8.07;4.10;;;6.30;99.90;;;;;;5026339;28;20040;-73
2022/05/31 02:02:50;;;;;;;7.25;4.22;;;6.30;99.90;;;;;;5028913;28;20087;-72
2022/05/31 02:05:15;;;;;;;10.65;4.20;;;6.20;99.90;;;;;;5025968;28;20030;-73
2022/05/31 02:07:41;;;;;;;9.20;4.32;;;6.10;99.90;;;;;;5029314;28;20050;-73
2022/05/31 02:10:07;;;;;;;10.25;4.85;;;6.20;99.90;;;;;;5026499;28;20082;-72
2022/05/31 02:12:33;;;;;;;7.28;4.10;;;6.20;99.90;;;;;;5027833;28;20041;-73
2022/05/31 02:14:59;;;;;;;9.10;4.47;;;6.10;99.90;;;;;;5024606;28;20057;-73
2022/05/31 02:17:25;;;;;;;9.30;5.22;;;6.10;99.90;;;;;;5026204;28;20091;-73
2022/05/31 02:19:51;;;;;;;8.02;4.30;;;5.90;99.90;;;;;;5026900;28;20048;-74
2022/05/31 02:22:20;;;;;;;15.30;4.88;;;5.80;99.90;;;;;;5026909;28;20037;-73
2022/05/31 02:24:45;;;;;;;8.57;4.72;;;5.80;99.90;;;;;;5025255;28;20045;-73
2022/05/31 02:27:14;;;;;;;9.25;4.82;;;5.70;99.90;;;;;;5026524;28;20029;-73
2022/05/31 02:29:40;;;;;;;7.85;4.55;;;5.70;99.90;;;;;;5029280;28;20032;-73
2022/05/31 02:32:08;;;;;;;10.23;4.60;;;5.70;99.90;;;;;;5026090;28;20117;-71
2022/05/31 02:34:37;;;;;;;9.60;4.63;;;5.80;99.90;;;;;;5027607;28;20482;-73
2022/05/31 02:37:03;;;;;;;9.32;5.10;;;5.80;99.90;;;;;;5028357;28;20044;-73
2022/05/31 02:39:29;;;;;;;10.50;4.57;;;5.90;99.90;;;;;;5027117;28;20109;-73
2022/05/31 02:41:56;;;;;;;8.23;4.13;;;5.60;99.90;;;;;;5028874;28;20041;-73
2022/05/31 02:44:23;;;;;;;8.15;4.47;;;5.50;99.90;;;;;;5026760;28;20026;-72
2022/05/31 02:46:49;;;;;;;8.50;4.85;;;5.40;99.90;;;;;;5027327;28;20033;-73
2022/05/31 02:49:14;;;;;;;7.88;4.68;;;5.40;99.90;;;;;;5026692;28;20040;-72
2022/05/31 02:51:43;;;;;;;9.63;4.63;;;5.50;99.90;;;;;;5028795;28;20038;-74
2022/05/31 02:54:11;;;;;;;9.77;5.03;;;5.60;99.90;;;;;;5027008;28;20025;-70
2022/05/31 02:56:38;;;;;;;8.70;4.72;;;5.70;99.90;;;;;;5028448;28;20060;-73
2022/05/31 02:59:05;;;;;;;9.70;4.72;;;5.60;99.90;;;;;;5032369;28;20029;-73
2022/05/31 03:01:37;;;;;;;10.18;4.50;;;5.60;99.90;;;;;;5028226;28;20033;-73
2022/05/31 03:04:04;;;;;;;11.65;4.78;;;5.50;99.90;;;;;;5025172;28;20088;-72
2022/05/31 03:06:29;;;;;;;9.68;5.05;;;5.50;99.90;;;;;;5030599;28;20829;-73
2022/05/31 03:08:55;;;;;;;8.85;4.50;;;5.50;99.90;;;;;;5030220;28;20079;-73
2022/05/31 03:11:31;;;;;;;7.55;4.68;;;5.50;99.90;;;;;;5028292;28;20033;-74
2022/05/31 03:14:12;;;;;;;8.73;4.38;;;5.50;99.90;;;;;;5029965;28;20036;-73
2022/05/31 03:16:42;;;;;;;9.52;4.53;;;5.50;99.90;;;;;;5025564;28;20037;-73
2022/05/31 03:19:14;;;;;;;9.13;4.55;;;5.50;99.90;;;;;;5028373;28;20038;-71
2022/05/31 03:21:46;;;;;;;8.52;4.70;;;5.60;99.90;;;;;;5029390;28;20478;-75
2022/05/31 03:24:20;;;;;;;7.95;4.50;;;5.70;99.90;;;;;;5030134;28;20030;-74
2022/05/31 03:26:48;;;;;;;9.48;4.68;;;5.80;99.90;;;;;;5031944;28;20044;-74
2022/05/31 03:29:14;;;;;;;6.63;4.05;;;5.80;99.90;;;;;;5028789;28;20025;-71
2022/05/31 03:31:40;;;;;;;6.85;4.00;;;5.80;99.90;;;;;;5030927;28;20033;-74
2022/05/31 03:34:06;;;;;;;8.30;4.45;;;5.60;99.90;;;;;;5030677;28;20037;-75
2022/05/31 03:36:33;;;;;;;10.05;5.10;;;5.60;99.90;;;;;;5030126;28;20123;-74
2022/05/31 03:38:59;;;;;;;11.98;4.65;;;5.60;99.90;;;;;;5028154;28;20030;-73
2022/05/31 03:41:25;;;;;;;7.45;4.50;;;5.60;99.90;;;;;;5028520;28;20562;-75
2022/05/31 03:43:51;;;;;;;8.45;4.40;;;5.70;99.90;;;;;;5029525;28;20124;-74
2022/05/31 03:46:17;;;;;;;8.77;4.20;;;5.60;99.90;;;;;;5011218;28;20037;-74
2022/05/31 03:48:42;;;;;;;7.38;4.00;;;5.50;99.90;;;;;;5027431;28;20036;-73
2022/05/31 03:51:10;;;;;;;8.07;4.32;;;5.40;99.90;;;;;;5031273;28;20469;-71
2022/05/31 03:53:37;;;;;;;8.60;4.32;;;5.40;99.90;;;;;;5023201;28;20037;-74
2022/05/31 03:56:05;;;;;;;6.63;3.90;;;5.50;99.90;;;;;;5028880;28;20092;-74
2022/05/31 03:58:32;;;;;;;8.82;4.72;;;5.50;99.90;;;;;;5021569;28;20022;-69
2022/05/31 04:00:58;;;;;;;10.35;4.55;;;5.50;99.90;;;;;;5023205;28;20096;-71
2022/05/31 04:03:25;;;;;;;9.48;4.53;;;5.60;99.90;;;;;;5029120;28;20056;-70
2022/05/31 04:05:52;;;;;;;9.32;4.40;;;5.70;99.90;;;;;;5029179;28;20030;-71
2022/05/31 04:08:19;;;;;;;9.15;4.32;;;5.80;99.90;;;;;;5028373;28;20078;-71
2022/05/31 04:10:45;;;;;;;9.65;4.03;;;6.10;99.90;;;;;;5030829;28;20025;-69
2022/05/31 04:13:13;;;;;;;8.77;4.60;;;6.30;99.90;;;;;;5026674;28;20151;-68
2022/05/31 04:15:39;;;;;;;9.23;4.40;;;6.30;99.90;;;;;;5029339;28;20029;-73
2022/05/31 04:18:08;;;;;;;7.10;3.85;;;6.30;99.90;;;;;;5029005;28;20037;-73
2022/05/31 04:20:37;;;;;;;8.90;4.22;;;6.40;99.90;;;;;;5028824;28;20108;-75
2022/05/31 04:25:48;;;;;;;7.70;3.90;;;6.60;99.90;;;;;;5028096;28;20040;-73
2022/05/31 04:28:15;;;;;;;7.50;4.15;;;6.60;99.90;;;;;;5028253;28;20029;-66
2022/05/31 04:30:44;;;;;;;7.68;4.38;;;6.50;99.90;;;;;;5026883;28;20080;-73
2022/05/31 04:33:10;;;;;;;9.77;4.18;;;6.40;99.90;;;;;;5028405;28;20033;-71
2022/05/31 04:35:36;;;;;;;9.55;4.22;;;6.30;99.90;;;;;;5028606;28;20151;-72
2022/05/31 04:38:02;;;;;;;8.82;4.93;;;6.30;99.90;;;;;;5030288;28;20037;-72
2022/05/31 04:40:28;;;;;;;7.45;4.35;;;6.40;99.90;;;;;;5027142;28;20092;-72
2022/05/31 04:42:54;;;;;;;8.13;4.07;;;6.60;99.90;;;;;;5029082;28;20025;-71
2022/05/31 04:45:20;;;;;;;8.40;4.40;;;6.90;99.90;;;;;;5029460;28;20386;-71
2022/05/31 04:47:46;;;;;;;7.95;4.35;;;7.20;99.90;;;;;;5029144;28;20029;-72
2022/05/31 04:50:12;;;;;;;7.72;4.32;;;7.50;99.90;;;;;;5029707;28;20436;-68
2022/05/31 04:52:37;;;;;;;8.50;4.43;;;7.70;99.90;;;;;;5027554;28;20038;-70
2022/05/31 04:55:04;;;;;;;10.18;4.40;;;7.80;99.90;;;;;;5029421;28;20505;-71
2022/05/31 04:57:30;;;;;;;8.30;4.38;;;8.00;99.90;;;;;;5027404;28;20033;-72
2022/05/31 04:59:55;;;;;;;7.45;4.03;;;8.10;99.90;;;;;;5028103;28;20535;-70
2022/05/31 05:02:21;;;;;;;7.03;3.72;;;8.10;99.90;;;;;;5027223;28;20041;-70
2022/05/31 05:04:46;;;;;;;8.75;4.60;;;8.10;99.90;;;;;;5012020;28;20032;-71
2022/05/31 05:07:12;;;;;;;7.47;4.38;;;8.10;99.90;;;;;;5028660;28;20065;-69
2022/05/31 05:09:38;;;;;;;11.23;5.80;;;8.20;99.90;;;;;;5027756;28;20498;-72
2022/05/31 05:12:04;;;;;;;10.30;4.90;;;8.30;99.90;;;;;;5027356;28;20048;-72
2022/05/31 05:14:30;;;;;;;11.98;5.45;;;8.60;99.90;;;;;;5028426;28;20033;-72
2022/05/31 05:16:56;;;;;;;6.75;4.25;;;8.90;99.90;;;;;;5027607;28;20029;-73
2022/05/31 05:19:22;;;;;;;6.20;3.90;;;9.20;99.90;;;;;;5027237;28;20474;-72
2022/05/31 05:21:47;;;;;;;7.78;4.43;;;9.30;99.90;;;;;;5028554;28;20041;-72
2022/05/31 05:24:13;;;;;;;9.60;5.45;;;9.40;99.90;;;;;;5028278;28;20030;-71
2022/05/31 05:26:39;;;;;;;8.63;5.10;;;9.60;99.90;;;;;;5026710;28;20025;-76
2022/05/31 05:31:52;;;;;;;11.38;6.18;;;10.20;99.90;;;;;;5027921;28;20051;-69
2022/05/31 05:34:19;;;;;;;9.18;5.03;;;10.60;99.90;;;;;;5027716;28;20498;-72
2022/05/31 05:36:45;;;;;;;8.95;4.47;;;10.80;99.90;;;;;;5027310;28;20026;-74
2022/05/31 05:39:11;;;;;;;9.25;4.60;;;10.90;99.90;;;;;;5029562;28;20056;-73
2022/05/31 05:41:40;;;;;;;7.35;4.75;;;11.00;99.90;;;;;;5024457;28;20107;-73
2022/05/31 05:44:06;;;;;;;8.10;4.10;;;11.20;99.90;;;;;;5028510;28;20117;-73
2022/05/31 05:46:32;;;;;;;6.32;4.10;;;11.30;99.90;;;;;;5026225;28;20108;-72
2022/05/31 05:48:58;;;;;;;9.63;4.50;;;11.50;99.90;;;;;;5029292;28;20025;-72
2022/05/31 05:51:31;;;;;;;6.50;3.50;;;11.80;99.90;;;;;;5027446;28;20539;-74
2022/05/31 05:53:57;;;;;;;7.07;4.05;;;12.00;99.90;;;;;;5028743;28;20386;-72
2022/05/31 05:56:24;;;;;;;7.65;4.05;;;12.20;99.90;;;;;;5026519;28;20088;-76
2022/05/31 05:58:49;;;;;;;6.55;4.22;;;12.20;99.90;;;;;;5028737;28;20033;-74
2022/05/31 06:01:24;;;;;;;10.10;4.68;;;12.30;99.90;;;;;;5028185;28;20029;-72
2022/05/31 06:04:13;;;;;;;6.88;4.68;;;12.60;99.90;;;;;;5028813;28;20025;-73
2022/05/31 06:06:42;;;;;;;8.88;3.78;;;12.90;99.90;;;;;;5025340;28;20045;-75
2022/05/31 06:09:11;;;;;;;7.72;4.10;;;13.10;99.90;;;;;;5010878;28;20052;-74
2022/05/31 06:11:45;;;;;;;4.88;2.85;;;13.10;99.90;;;;;;5026736;28;20099;-75
2022/05/31 06:14:30;;;;;;;7.15;3.28;;;13.00;99.90;;;;;;5027719;28;20036;-74
2022/05/31 06:17:04;;;;;;;5.07;2.90;;;13.00;99.90;;;;;;5028658;28;20053;-75
2022/05/31 06:19:35;;;;;;;4.60;2.90;;;13.10;99.90;;;;;;5027183;28;20034;-72
2022/05/31 06:22:03;;;;;;;4.38;2.55;;;13.30;99.90;;;;;;5029052;28;20065;-73
2022/05/31 06:24:31;;;;;;;5.63;2.58;;;13.50;99.90;;;;;;5023960;28;20056;-72
2022/05/31 06:26:56;;;;;;;4.88;2.13;;;13.60;99.90;;;;;;5027535;28;20104;-73
2022/05/31 06:29:22;;;;;;;6.60;2.28;;;13.70;99.90;;;;;;5025700;28;20117;-74
2022/05/31 06:31:48;;;;;;;5.97;2.10;;;13.90;99.90;;;;;;5028189;28;20524;-71
2022/05/31 06:34:13;;;;;;;3.70;1.92;;;14.10;99.90;;;;;;5030975;28;20377;-73
2022/05/31 06:36:42;;;;;;;4.43;2.28;;;14.30;99.90;;;;;;5029690;28;20656;-73
2022/05/31 06:39:08;;;;;;;6.35;2.30;;;14.40;99.90;;;;;;5031226;28;20051;-73
2022/05/31 06:41:35;;;;;;;3.20;2.05;;;14.70;99.90;;;;;;5030950;28;20049;-75
2022/05/31 06:44:01;;;;;;;3.92;2.22;;;15.00;99.90;;;;;;5028268;28;20551;-73
2022/05/31 06:46:27;;;;;;;4.15;2.00;;;15.20;99.90;;;;;;5031612;28;20025;-69
2022/05/31 06:48:53;;;;;;;3.60;2.00;;;15.30;99.90;;;;;;5031488;28;20032;-72
2022/05/31 06:56:54;;;;;;;3.47;1.80;;;16.00;99.90;;;;;;5030903;28;20040;-73
2022/05/31 06:59:20;;;;;;;4.45;1.90;;;16.30;99.90;;;;;;5029819;28;20120;-71
2022/05/31 07:01:47;;;;;;;3.35;1.70;;;16.30;99.90;;;;;;5030763;28;20034;-75
2022/05/31 07:04:13;;;;;;;3.08;1.83;;;16.50;99.90;;;;;;5030746;28;20017;-72
2022/05/31 07:06:39;;;;;;;3.60;1.77;;;16.50;99.90;;;;;;5013710;28;20121;-75
2022/05/31 07:09:05;;;;;;;2.78;1.63;;;16.60;99.90;;;;;;5031712;28;22125;-74
2022/05/31 07:11:30;;;;;;;2.22;1.52;;;16.60;99.90;;;;;;5030400;28;20106;-74
2022/05/31 07:13:56;;;;;;;2.80;1.90;;;16.70;99.90;;;;;;5029327;28;20035;-71
2022/05/31 07:16:22;;;;;;;3.95;2.30;;;17.00;99.90;;;;;;5030607;28;20033;-71
2022/05/31 07:18:48;;;;;;;3.90;1.60;;;17.20;99.90;;;;;;5023021;28;20060;-72
2022/05/31 07:21:14;;;;;;;2.13;1.70;;;17.50;99.90;;;;;;5029032;28;20474;-72
2022/05/31 07:23:40;;;;;;;2.70;1.83;;;17.50;99.90;;;;;;5030526;28;20043;-71
2022/05/31 07:26:07;;;;;;;3.25;1.40;;;17.50;99.90;;;;;;5027432;28;20394;-73
2022/05/31 07:28:33;;;;;;;6.10;1.75;;;17.80;99.90;;;;;;5011641;28;20041;-72
2022/05/31 07:31:00;;;;;;;4.50;1.30;;;18.10;99.90;;;;;;5030788;28;20112;-74
2022/05/31 07:33:26;;;;;;;2.33;1.45;;;18.20;99.90;;;;;;5029240;28;20471;-75
2022/05/31 07:35:52;;;;;;;1.65;1.13;;;18.30;99.90;;;;;;5030852;28;20056;-72
2022/05/31 07:38:20;;;;;;;4.25;1.77;;;18.40;99.90;;;;;;5029723;28;20029;-75
2022/05/31 07:40:46;;;;;;;4.13;1.50;;;18.60;99.90;;;;;;5030137;28;20053;-72
2022/05/31 07:43:13;;;;;;;2.95;1.50;;;18.70;99.90;;;;;;5027003;28;20034;-69
2022/05/31 07:45:39;;;;;;;4.70;1.48;;;18.80;99.90;;;;;;5030100;28;20052;-72
2022/05/31 07:48:05;;;;;;;3.45;1.60;;;18.80;99.90;;;;;;5028837;28;20113;-68
2022/05/31 07:50:32;;;;;;;3.25;1.58;;;18.60;99.40;;;;;;5026348;28;20045;-68
2022/05/31 07:52:59;;;;;;;2.55;1.40;;;18.30;99.90;;;;;;5029820;28;20045;-72
2022/05/31 07:55:27;;;;;;;2.03;1.30;;;18.10;99.30;;;;;;5030192;28;20021;-69
2022/05/31 08:00:37;;;;;;;3.33;1.63;;;18.40;98.60;;;;;;5029373;28;20040;-70
2022/05/31 08:03:05;;;;;;;4.18;1.63;;;18.20;98.50;;;;;;5030493;28;20033;-70
2022/05/31 08:05:30;;;;;;;4.43;1.50;;;17.90;97.80;;;;;;5030066;28;20026;-69
2022/05/31 08:07:56;;;;;;;4.40;1.73;;;18.10;98.70;;;;;;5030239;28;20034;-70
2022/05/31 08:10:22;;;;;;;2.97;1.63;;;18.50;97.60;;;;;;5030664;28;20030;-67
2022/05/31 08:12:48;;;;;;;2.35;1.55;;;18.90;97.20;;;;;;5027465;28;20043;-71
2022/05/31 08:15:18;;;;;;;4.43;1.90;;;19.00;96.80;;;;;;5029534;28;20026;-70
2022/05/31 08:17:46;;;;;;;2.72;1.60;;;18.90;96.50;;;;;;5028779;28;20026;-71
2022/05/31 08:20:13;;;;;;;5.93;1.67;;;18.90;97.40;;;;;;5030180;28;20056;-69
2022/05/31 08:22:39;;;;;;;2.22;1.50;;;19.00;97.40;;;;;;5028465;28;20041;-70
2022/05/31 08:25:09;;;;;;;2.05;1.45;;;19.10;96.10;;;;;;5029693;28;20485;-72
2022/05/31 08:27:36;;;;;;;3.83;1.83;;;18.90;95.80;;;;;;5027659;28;20026;-71
2022/05/31 08:30:04;;;;;;;3.33;1.58;;;19.00;93.80;;;;;;5027344;28;20038;-69
2022/05/31 08:32:30;;;;;;;3.63;1.55;;;19.10;95.90;;;;;;5028958;28;20048;-70
2022/05/31 08:34:56;;;;;;;2.80;1.40;;;19.30;96.80;;;;;;5029197;28;20032;-72
2022/05/31 08:37:22;;;;;;;4.22;1.58;;;19.10;95.30;;;;;;5029846;28;20545;-69
2022/05/31 08:39:47;;;;;;;1.85;1.60;;;19.10;94.50;;;;;;5028140;28;20060;-71
2022/05/31 08:42:18;;;;;;;2.80;1.50;;;19.00;94.80;;;;;;5029464;28;20036;-72
2022/05/31 08:45:00;;;;;;;6.90;1.70;;;18.90;94.40;;;;;;5025941;28;20029;-69
2022/05/31 08:47:45;;;;;;;2.38;1.88;;;18.70;93.40;;;;;;5029132;28;20467;-68
2022/05/31 08:53:34;;;;;;;2.33;1.63;;;19.20;94.40;;;;;;5030515;28;20087;-71
2022/05/31 08:59:27;;;;;;;4.50;2.08;;;20.00;92.40;;;;;;5028335;28;20048;-69
2022/05/31 09:02:01;;;;;;;2.10;1.70;;;20.10;92.20;;;;;;5030230;28;20057;-70
2022/05/31 09:04:38;;;;;;;3.45;1.73;;;19.80;91.30;;;;;;5028169;28;20803;-68
2022/05/31 09:07:42;;;;;;;2.17;1.50;;;19.90;91.30;;;;;;5030216;28;20025;-71
2022/05/31 09:10:19;;;;;;;5.57;1.45;;;20.40;88.30;;;;;;4986523;28;20076;-69
2022/05/31 09:13:04;;;;;;;2.90;1.65;;;20.70;86.10;;;;;;5027780;28;20139;-71
2022/05/31 09:15:45;;;;;;;3.72;1.45;;;21.00;87.10;;;;;;5028315;28;20041;-69
2022/05/31 09:18:22;;;;;;;5.68;1.77;;;20.70;86.80;;;;;;5028016;28;20033;-69
2022/05/31 09:21:04;;;;;;;3.95;1.65;;;20.70;89.20;;;;;;5027594;28;20633;-72
2022/05/31 09:23:39;;;;;;;5.57;1.80;;;20.50;83.20;;;;;;5028466;28;20049;-68
2022/05/31 09:26:08;;;;;;;2.60;1.85;;;20.20;84.80;;;;;;5028770;28;20026;-71
2022/05/31 09:29:11;;;;;;;4.38;1.50;;;20.40;87.40;;;;;;5026494;28;20040;-69
2022/05/31 09:31:43;;;;;;;3.20;1.63;;;20.90;87.00;;;;;;5009226;28;20447;-70
2022/05/31 09:34:17;;;;;;;4.28;1.90;;;21.20;81.50;;;;;;5027668;28;20057;-68
2022/05/31 09:37:02;;;;;;;3.63;1.90;;;21.50;81.90;;;;;;5026478;28;20271;-71
2022/05/31 09:39:50;;;;;;;2.38;1.90;;;21.30;78.90;;;;;;5028102;28;20034;-67
2022/05/31 09:42:23;;;;;;;5.05;1.83;;;20.70;85.20;;;;;;5027846;28;20068;-72
2022/05/31 09:45:01;;;;;;;3.60;1.88;;;20.50;84.00;;;;;;5027226;28;20021;-72
2022/05/31 09:47:28;;;;;;;2.10;1.58;;;20.50;83.60;;;;;;5026741;28;20134;-71
2022/05/31 09:49:54;;;;;;;3.60;1.65;;;20.90;84.00;;;;;;5027721;28;20163;-73
2022/05/31 09:52:47;;;;;;;5.78;1.85;;;21.20;84.10;;;;;;5026754;28;20033;-73
2022/05/31 09:58:30;;;;;;;2.70;1.60;;;22.30;84.70;;;;;;5025712;28;20044;-75
2022/05/31 10:01:12;;;;;;;2.10;1.60;;;22.40;82.70;;;;;;5027610;28;20064;-76
2022/05/31 10:04:09;;;;;;;6.40;1.85;;;22.20;78.20;;;;;;5023086;28;20463;-70
2022/05/31 10:06:52;;;;;;;4.05;1.83;;;22.00;76.20;;;;;;5010348;28;20467;-72
2022/05/31 10:09:19;;;;;;;5.72;1.95;;;21.60;78.20;;;;;;5030852;28;20025;-71
2022/05/31 10:11:45;;;;;;;3.25;1.70;;;21.00;77.50;;;;;;5029288;28;20065;-73
2022/05/31 10:14:25;;;;;;;2.92;1.67;;;21.10;80.70;;;;;;5030859;28;20493;-72
2022/05/31 10:16:52;;;;;;;5.93;2.13;;;21.10;80.10;;;;;;5031094;28;20052;-72
2022/05/31 10:19:23;;;;;;;4.70;2.20;;;21.30;77.40;;;;;;5029539;28;20478;-71
2022/05/31 10:21:49;;;;;;;3.15;1.70;;;21.40;76.70;;;;;;5032003;28;20152;-73
2022/05/31 10:24:25;;;;;;;4.97;1.70;;;21.20;79.20;;;;;;5032515;28;20030;-73
2022/05/31 10:27:19;;;;;;;5.70;1.85;;;21.60;77.90;;;;;;5030583;28;20033;-74
2022/05/31 10:29:49;;;;;;;3.67;2.25;;;21.80;76.30;;;;;;5021190;28;20106;-73
2022/05/31 10:32:33;;;;;;;4.78;2.15;;;21.70;82.50;;;;;;5031081;28;20041;-72
2022/05/31 10:35:10;;;;;;;2.90;1.77;;;21.80;75.10;;;;;;5030309;28;20026;-71
2022/05/31 10:37:36;;;;;;;3.35;1.95;;;21.60;74.90;;;;;;5032038;28;20036;-73
2022/05/31 10:40:10;;;;;;;4.38;2.35;;;21.70;78.00;;;;;;5031620;28;20128;-72
2022/05/31 10:42:41;;;;;;;5.47;1.73;;;21.90;72.80;;;;;;5031902;28;20061;-72
2022/05/31 10:45:08;;;;;;;3.08;2.00;;;22.00;77.20;;;;;;5031233;28;20037;-72
2022/05/31 10:47:34;;;;;;;3.53;1.90;;;21.90;77.90;;;;;;5030817;28;20112;-69
2022/05/31 10:50:02;;;;;;;5.43;1.95;;;21.80;72.70;;;;;;4992777;28;20136;-73
2022/05/31 10:52:46;;;;;;;4.72;1.75;;;21.60;77.50;;;;;;5023397;28;20041;-72
2022/05/31 10:55:53;;;;;;;8.50;2.20;;;21.40;73.90;;;;;;5032448;28;20575;-73
2022/05/31 10:58:54;;;;;;;3.42;2.10;;;21.70;76.40;;;;;;5030992;28;20494;-72
2022/05/31 11:02:12;;;;;;;5.47;2.25;;;21.90;76.80;;;;;;5013246;28;20072;-73
2022/05/31 11:04:54;;;;;;;3.95;2.20;;;21.80;78.80;;;;;;4982796;28;20045;-72
2022/05/31 11:07:29;;;;;;;2.40;1.90;;;21.80;75.30;;;;;;5030664;28;20109;-74
2022/05/31 11:13:22;;;;;;;4.22;1.85;;;21.80;77.30;;;;;;5029765;28;20548;-72
2022/05/31 11:16:31;;;;;;;3.70;1.80;;;21.70;75.60;;;;;;5014642;28;20041;-72
2022/05/31 11:19:04;;;;;;;3.30;1.80;;;21.60;78.10;;;;;;5030497;28;20037;-72
2022/05/31 11:21:56;;;;;;;3.05;1.70;;;21.50;77.00;;;;;;5031009;28;20073;-73
2022/05/31 11:24:21;;;;;;;3.33;1.83;;;21.40;72.90;;;;;;5030868;28;20087;-72
2022/05/31 11:27:06;;;;;;;2.58;2.00;;;21.20;73.30;;;;;;5030031;28;20041;-70
2022/05/31 11:29:54;;;;;;;6.32;1.90;;;21.20;73.30;;;;;;5008680;28;20200;-72
2022/05/31 11:32:43;;;;;;;3.28;2.10;;;21.40;68.90;;;;;;5012019;28;20034;-71
2022/05/31 11:35:32;;;;;;;7.68;2.10;;;21.40;73.00;;;;;;5027892;28;20026;-73
2022/05/31 11:38:01;;;;;;;5.00;1.90;;;21.50;73.70;;;;;;5011376;28;20068;-72
2022/05/31 11:40:43;;;;;;;3.42;1.83;;;21.50;69.60;;;;;;5029842;28;20053;-72
2022/05/31 11:43:37;;;;;;;3.20;1.90;;;21.40;73.90;;;;;;5029899;28;20136;-71
2022/05/31 11:46:16;;;;;;;5.85;1.85;;;21.40;76.60;;;;;;5024566;28;20034;-75
2022/05/31 11:49:01;;;;;;;5.47;2.10;;;21.20;70.00;;;;;;5030860;28;20025;-75
2022/05/31 11:51:50;;;;;;;5.10;1.98;;;21.20;74.90;;;;;;5011974;28;20692;-74
2022/05/31 11:54:42;;;;;;;6.35;2.30;;;21.10;72.70;;;;;;5003614;28;20046;-72
2022/05/31 11:57:17;;;;;;;5.45;2.13;;;21.10;75.50;;;;;;5017544;28;20052;-73
2022/05/31 11:59:58;;;;;;;3.10;2.10;;;21.20;79.10;;;;;;5028860;28;20030;-72
2022/05/31 12:02:32;;;;;;;3.15;1.55;;;21.50;80.30;;;;;;5029336;28;20398;-72
2022/05/31 12:05:09;;;;;;;5.47;2.10;;;22.20;76.80;;;;;;5008381;28;20021;-71
2022/05/31 12:07:50;;;;;;;3.40;2.00;;;22.50;67.50;;;;;;5027401;28;20029;-74
2022/05/31 12:10:18;;;;;;;2.42;1.73;;;22.50;65.10;;;;;;5029439;28;20032;-72
2022/05/31 12:12:45;;;;;;;4.78;1.90;;;22.30;67.00;;;;;;5029617;28;20709;-71
2022/05/31 12:15:20;;;;;;;3.80;1.88;;;22.20;71.80;;;;;;5029490;28;20032;-70
2022/05/31 12:18:03;;;;;;;4.88;1.92;;;22.40;66.20;;;;;;5026199;28;20146;-72
2022/05/31 12:21:02;;;;;;;3.15;1.90;;;22.70;67.40;;;;;;5008423;28;20438;-72
2022/05/31 12:23:37;;;;;;;3.10;2.15;;;22.60;64.10;;;;;;5024307;28;20413;-73
2022/05/31 12:26:13;;;;;;;5.57;2.35;;;22.40;68.60;;;;;;5028479;28;20029;-71
2022/05/31 12:28:49;;;;;;;5.07;2.15;;;22.30;68.40;;;;;;5029889;28;20040;-72
2022/05/31 12:31:24;;;;;;;2.67;1.80;;;22.50;72.50;;;;;;5027723;28;20049;-70
2022/05/31 12:33:50;;;;;;;5.65;2.10;;;22.40;69.60;;;;;;5029795;28;20029;-70
2022/05/31 12:36:21;;;;;;;5.03;2.35;;;22.20;69.60;;;;;;5030044;28;20418;-70
2022/05/31 12:38:59;;;;;;;3.65;2.30;;;21.90;70.60;;;;;;5029813;28;20037;-70
2022/05/31 12:41:51;;;;;;;3.72;2.10;;;21.60;68.20;;;;;;5012194;28;20054;-71
2022/05/31 12:44:30;;;;;;;3.83;2.50;;;21.40;70.30;;;;;;5023831;28;20034;-70
2022/05/31 12:47:09;;;;;;;3.83;2.10;;;21.50;72.00;;;;;;5027447;28;20112;-71
2022/05/31 12:49:47;;;;;;;3.75;2.00;;;21.70;71.90;;;;;;5028187;28;20107;-70
2022/05/31 12:55:36;;;;;;;3.50;1.98;;;22.60;71.90;;;;;;5026766;28;20022;-72
2022/05/31 13:00:48;;;;;;;5.43;2.10;;;23.20;69.90;;;;;;5025896;28;20099;-72
2022/05/31 13:03:39;;;;;;;6.50;2.08;;;23.40;67.80;;;;;;5028489;28;20087;-71
2022/05/31 13:06:17;;;;;;;5.40;2.20;;;24.00;70.90;;;;;;5015121;28;20050;-71
2022/05/31 13:08:52;;;;;;;2.83;2.03;;;24.70;67.90;;;;;;5027538;28;20025;-71
2022/05/31 13:20:23;;;;;;;3.30;2.20;;;24.30;64.20;;;;;;5026680;28;20040;-71
2022/05/31 13:23:09;;;;;;;5.20;2.47;;;24.20;62.30;;;;;;5023687;28;20045;-70
2022/05/31 13:25:49;;;;;;;3.88;2.22;;;24.00;67.20;;;;;;5025689;28;20030;-74
2022/05/31 13:28:29;;;;;;;4.68;2.50;;;23.90;67.70;;;;;;5025916;28;20127;-71
2022/05/31 13:31:09;;;;;;;4.55;2.65;;;23.80;65.90;;;;;;5028935;28;20112;-70
2022/05/31 13:33:35;;;;;;;3.30;2.35;;;23.60;63.90;;;;;;5011813;28;20026;-72
2022/05/31 13:36:14;;;;;;;5.88;2.50;;;23.60;65.80;;;;;;5028702;28;20113;-71
2022/05/31 13:38:43;;;;;;;4.75;2.28;;;24.00;68.70;;;;;;5011868;28;20432;-71
2022/05/31 13:41:12;;;;;;;5.20;2.63;;;24.40;68.30;;;;;;5011200;28;20076;-70
2022/05/31 13:43:47;;;;;;;4.28;2.47;;;24.90;73.00;;;;;;5028680;28;20076;-71
2022/05/31 13:46:36;;;;;;;4.93;2.15;;;25.30;67.40;;;;;;5029152;28;20032;-72
2022/05/31 13:49:16;;;;;;;4.13;2.50;;;25.20;62.30;;;;;;5028675;28;20017;-71
2022/05/31 13:51:50;;;;;;;8.95;2.97;;;25.40;63.50;;;;;;5029236;28;20073;-71
2022/05/31 13:54:20;;;;;;;6.50;2.35;;;25.50;64.50;;;;;;5029240;28;20025;-71
2022/05/31 13:56:47;;;;;;;3.55;2.10;;;25.40;63.10;;;;;;5028776;28;20051;-71